sensor_id;sensor_type;location;lat;lon;timestamp;P1;durP1;ratioP1;P2;durP2;ratioP2
77828;SDS011;67019;51.034;3.728;2023-06-26T00:01:46;4.97;;;2.90;;
77828;SDS011;67019;51.034;3.728;2023-06-26T00:04:13;5.97;;;3.52;;
77828;SDS011;67019;51.034;3.728;2023-06-26T00:06:41;5.03;;;3.67;;
77828;SDS011;67019;51.034;3.728;2023-06-26T00:09:09;7.62;;;3.77;;
77828;SDS011;67019;51.034;3.728;2023-06-26T00:11:38;5.90;;;3.30;;
77828;SDS011;67019;51.034;3.728;2023-06-26T00:14:06;7.42;;;4.08;;
77828;SDS011;67019;51.034;3.728;2023-06-26T00:16:34;8.80;;;4.37;;
77828;SDS011;67019;51.034;3.728;2023-06-26T00:19:02;7.22;;;3.72;;
77828;SDS011;67019;51.034;3.728;2023-06-26T00:21:30;8.43;;;3.92;;
77828;SDS011;67019;51.034;3.728;2023-06-26T00:23:57;6.65;;;3.40;;
77828;SDS011;67019;51.034;3.728;2023-06-26T00:26:25;8.63;;;3.98;;
77828;SDS011;67019;51.034;3.728;2023-06-26T00:28:53;10.45;;;3.35;;
77828;SDS011;67019;51.034;3.728;2023-06-26T00:31:20;9.50;;;3.98;;
77828;SDS011;67019;51.034;3.728;2023-06-26T00:33:48;10.05;;;4.92;;
77828;SDS011;67019;51.034;3.728;2023-06-26T00:36:16;8.30;;;3.83;;
77828;SDS011;67019;51.034;3.728;2023-06-26T00:38:45;9.23;;;4.42;;
77828;SDS011;67019;51.034;3.728;2023-06-26T00:41:12;7.03;;;4.00;;
77828;SDS011;67019;51.034;3.728;2023-06-26T00:43:40;8.05;;;3.47;;
77828;SDS011;67019;51.034;3.728;2023-06-26T00:46:08;8.23;;;4.00;;
77828;SDS011;67019;51.034;3.728;2023-06-26T00:48:37;14.38;;;3.92;;
77828;SDS011;67019;51.034;3.728;2023-06-26T00:51:06;6.15;;;3.72;;
77828;SDS011;67019;51.034;3.728;2023-06-26T00:53:34;6.62;;;3.67;;
77828;SDS011;67019;51.034;3.728;2023-06-26T00:56:05;6.58;;;3.95;;
77828;SDS011;67019;51.034;3.728;2023-06-26T00:58:32;7.08;;;4.00;;
77828;SDS011;67019;51.034;3.728;2023-06-26T01:01:01;7.62;;;3.25;;
77828;SDS011;67019;51.034;3.728;2023-06-26T01:03:32;8.78;;;3.65;;
77828;SDS011;67019;51.034;3.728;2023-06-26T01:05:59;11.03;;;3.55;;
77828;SDS011;67019;51.034;3.728;2023-06-26T01:08:27;8.80;;;3.22;;
77828;SDS011;67019;51.034;3.728;2023-06-26T01:10:55;8.53;;;3.92;;
77828;SDS011;67019;51.034;3.728;2023-06-26T01:13:24;6.85;;;3.17;;
77828;SDS011;67019;51.034;3.728;2023-06-26T01:15:54;8.85;;;3.52;;
77828;SDS011;67019;51.034;3.728;2023-06-26T01:18:24;9.68;;;3.65;;
77828;SDS011;67019;51.034;3.728;2023-06-26T01:20:52;8.18;;;4.03;;
77828;SDS011;67019;51.034;3.728;2023-06-26T01:23:24;6.80;;;3.75;;
77828;SDS011;67019;51.034;3.728;2023-06-26T01:28:41;8.30;;;4.10;;
77828;SDS011;67019;51.034;3.728;2023-06-26T01:31:10;8.28;;;3.87;;
77828;SDS011;67019;51.034;3.728;2023-06-26T01:33:38;10.20;;;3.95;;
77828;SDS011;67019;51.034;3.728;2023-06-26T01:36:07;8.08;;;4.25;;
77828;SDS011;67019;51.034;3.728;2023-06-26T01:38:35;13.72;;;5.25;;
77828;SDS011;67019;51.034;3.728;2023-06-26T01:41:06;11.83;;;3.80;;
77828;SDS011;67019;51.034;3.728;2023-06-26T01:46:33;14.70;;;4.15;;
77828;SDS011;67019;51.034;3.728;2023-06-26T01:51:47;7.37;;;3.55;;
77828;SDS011;67019;51.034;3.728;2023-06-26T01:54:26;15.25;;;4.53;;
77828;SDS011;67019;51.034;3.728;2023-06-26T01:56:56;11.30;;;4.15;;
77828;SDS011;67019;51.034;3.728;2023-06-26T01:59:24;11.65;;;4.25;;
77828;SDS011;67019;51.034;3.728;2023-06-26T02:01:56;13.95;;;5.45;;
77828;SDS011;67019;51.034;3.728;2023-06-26T02:04:24;10.88;;;5.22;;
77828;SDS011;67019;51.034;3.728;2023-06-26T02:06:51;11.45;;;4.65;;
77828;SDS011;67019;51.034;3.728;2023-06-26T02:09:20;17.62;;;6.72;;
77828;SDS011;67019;51.034;3.728;2023-06-26T02:11:50;12.45;;;4.50;;
77828;SDS011;67019;51.034;3.728;2023-06-26T02:14:17;15.35;;;5.45;;
77828;SDS011;67019;51.034;3.728;2023-06-26T02:16:46;16.20;;;5.75;;
77828;SDS011;67019;51.034;3.728;2023-06-26T02:19:14;26.02;;;5.60;;
77828;SDS011;67019;51.034;3.728;2023-06-26T02:21:43;12.03;;;4.40;;
77828;SDS011;67019;51.034;3.728;2023-06-26T02:24:11;20.00;;;6.25;;
77828;SDS011;67019;51.034;3.728;2023-06-26T02:26:38;16.87;;;7.55;;
77828;SDS011;67019;51.034;3.728;2023-06-26T02:29:06;16.73;;;4.75;;
77828;SDS011;67019;51.034;3.728;2023-06-26T02:31:34;14.58;;;5.10;;
77828;SDS011;67019;51.034;3.728;2023-06-26T02:34:01;17.80;;;4.87;;
77828;SDS011;67019;51.034;3.728;2023-06-26T02:36:30;29.15;;;5.83;;
77828;SDS011;67019;51.034;3.728;2023-06-26T02:38:57;12.55;;;4.80;;
77828;SDS011;67019;51.034;3.728;2023-06-26T02:41:25;21.37;;;5.92;;
77828;SDS011;67019;51.034;3.728;2023-06-26T02:43:53;11.80;;;5.22;;
77828;SDS011;67019;51.034;3.728;2023-06-26T02:46:20;19.02;;;5.35;;
77828;SDS011;67019;51.034;3.728;2023-06-26T02:48:48;20.55;;;6.62;;
77828;SDS011;67019;51.034;3.728;2023-06-26T02:51:16;18.52;;;6.05;;
77828;SDS011;67019;51.034;3.728;2023-06-26T02:53:43;18.60;;;4.67;;
77828;SDS011;67019;51.034;3.728;2023-06-26T02:56:11;16.12;;;5.12;;
77828;SDS011;67019;51.034;3.728;2023-06-26T02:58:39;15.90;;;4.85;;
77828;SDS011;67019;51.034;3.728;2023-06-26T03:01:06;18.87;;;6.30;;
77828;SDS011;67019;51.034;3.728;2023-06-26T03:03:34;18.05;;;4.67;;
77828;SDS011;67019;51.034;3.728;2023-06-26T03:06:03;15.90;;;4.92;;
77828;SDS011;67019;51.034;3.728;2023-06-26T03:08:32;17.40;;;5.00;;
77828;SDS011;67019;51.034;3.728;2023-06-26T03:11:01;24.60;;;5.12;;
77828;SDS011;67019;51.034;3.728;2023-06-26T03:13:28;10.70;;;4.72;;
77828;SDS011;67019;51.034;3.728;2023-06-26T03:15:56;13.62;;;5.65;;
77828;SDS011;67019;51.034;3.728;2023-06-26T03:18:24;13.83;;;4.97;;
77828;SDS011;67019;51.034;3.728;2023-06-26T03:20:52;16.95;;;5.35;;
77828;SDS011;67019;51.034;3.728;2023-06-26T03:23:21;19.70;;;7.23;;
77828;SDS011;67019;51.034;3.728;2023-06-26T03:26:09;13.68;;;5.25;;
77828;SDS011;67019;51.034;3.728;2023-06-26T03:28:39;21.77;;;6.15;;
77828;SDS011;67019;51.034;3.728;2023-06-26T03:31:08;13.80;;;5.72;;
77828;SDS011;67019;51.034;3.728;2023-06-26T03:33:37;23.47;;;5.37;;
77828;SDS011;67019;51.034;3.728;2023-06-26T03:36:04;22.05;;;5.28;;
77828;SDS011;67019;51.034;3.728;2023-06-26T03:38:33;14.43;;;4.05;;
77828;SDS011;67019;51.034;3.728;2023-06-26T03:41:01;16.30;;;5.17;;
77828;SDS011;67019;51.034;3.728;2023-06-26T03:43:31;19.87;;;4.12;;
77828;SDS011;67019;51.034;3.728;2023-06-26T03:45:58;11.68;;;4.35;;
77828;SDS011;67019;51.034;3.728;2023-06-26T03:48:26;18.12;;;6.30;;
77828;SDS011;67019;51.034;3.728;2023-06-26T03:50:54;14.25;;;4.58;;
77828;SDS011;67019;51.034;3.728;2023-06-26T03:53:21;14.18;;;4.47;;
77828;SDS011;67019;51.034;3.728;2023-06-26T03:55:50;14.25;;;4.17;;
77828;SDS011;67019;51.034;3.728;2023-06-26T03:58:22;21.55;;;4.87;;
77828;SDS011;67019;51.034;3.728;2023-06-26T04:00:51;19.50;;;6.17;;
77828;SDS011;67019;51.034;3.728;2023-06-26T04:03:19;17.48;;;4.87;;
77828;SDS011;67019;51.034;3.728;2023-06-26T04:05:48;21.00;;;5.10;;
77828;SDS011;67019;51.034;3.728;2023-06-26T04:08:15;22.45;;;5.70;;
77828;SDS011;67019;51.034;3.728;2023-06-26T04:10:43;25.82;;;7.22;;
77828;SDS011;67019;51.034;3.728;2023-06-26T04:13:11;16.73;;;5.22;;
77828;SDS011;67019;51.034;3.728;2023-06-26T04:15:39;11.60;;;4.33;;
77828;SDS011;67019;51.034;3.728;2023-06-26T04:18:07;16.23;;;4.08;;
77828;SDS011;67019;51.034;3.728;2023-06-26T04:20:41;15.65;;;4.37;;
77828;SDS011;67019;51.034;3.728;2023-06-26T04:23:10;17.02;;;4.92;;
77828;SDS011;67019;51.034;3.728;2023-06-26T04:25:39;21.57;;;4.62;;
77828;SDS011;67019;51.034;3.728;2023-06-26T04:28:07;21.77;;;3.98;;
77828;SDS011;67019;51.034;3.728;2023-06-26T04:30:35;16.05;;;4.28;;
77828;SDS011;67019;51.034;3.728;2023-06-26T04:33:06;11.90;;;3.87;;
77828;SDS011;67019;51.034;3.728;2023-06-26T04:35:35;13.50;;;3.72;;
77828;SDS011;67019;51.034;3.728;2023-06-26T04:38:02;12.10;;;3.72;;
77828;SDS011;67019;51.034;3.728;2023-06-26T04:40:30;12.28;;;3.98;;
77828;SDS011;67019;51.034;3.728;2023-06-26T04:42:59;15.05;;;4.00;;
77828;SDS011;67019;51.034;3.728;2023-06-26T04:45:27;18.62;;;3.77;;
77828;SDS011;67019;51.034;3.728;2023-06-26T04:47:54;13.25;;;3.72;;
77828;SDS011;67019;51.034;3.728;2023-06-26T04:50:22;11.57;;;3.37;;
77828;SDS011;67019;51.034;3.728;2023-06-26T04:52:52;15.50;;;4.15;;
77828;SDS011;67019;51.034;3.728;2023-06-26T04:55:19;18.42;;;3.45;;
77828;SDS011;67019;51.034;3.728;2023-06-26T04:57:47;16.10;;;3.90;;
77828;SDS011;67019;51.034;3.728;2023-06-26T05:00:15;15.43;;;3.67;;
77828;SDS011;67019;51.034;3.728;2023-06-26T05:02:43;11.48;;;3.62;;
77828;SDS011;67019;51.034;3.728;2023-06-26T05:05:12;8.90;;;3.02;;
77828;SDS011;67019;51.034;3.728;2023-06-26T05:07:41;9.98;;;2.72;;
77828;SDS011;67019;51.034;3.728;2023-06-26T05:10:09;13.40;;;3.50;;
77828;SDS011;67019;51.034;3.728;2023-06-26T05:12:36;13.60;;;3.40;;
77828;SDS011;67019;51.034;3.728;2023-06-26T05:15:04;10.80;;;3.10;;
77828;SDS011;67019;51.034;3.728;2023-06-26T05:17:32;11.10;;;3.45;;
77828;SDS011;67019;51.034;3.728;2023-06-26T05:20:00;15.75;;;3.33;;
77828;SDS011;67019;51.034;3.728;2023-06-26T05:22:31;18.15;;;3.67;;
77828;SDS011;67019;51.034;3.728;2023-06-26T05:25:01;13.40;;;2.55;;
77828;SDS011;67019;51.034;3.728;2023-06-26T05:27:32;15.85;;;3.17;;
77828;SDS011;67019;51.034;3.728;2023-06-26T05:30:00;8.85;;;2.85;;
77828;SDS011;67019;51.034;3.728;2023-06-26T05:32:28;7.75;;;2.90;;
77828;SDS011;67019;51.034;3.728;2023-06-26T05:34:59;19.73;;;3.37;;
77828;SDS011;67019;51.034;3.728;2023-06-26T05:37:31;13.32;;;3.58;;
77828;SDS011;67019;51.034;3.728;2023-06-26T05:40:01;16.95;;;2.90;;
77828;SDS011;67019;51.034;3.728;2023-06-26T05:42:51;16.42;;;2.98;;
77828;SDS011;67019;51.034;3.728;2023-06-26T05:45:20;11.40;;;2.95;;
77828;SDS011;67019;51.034;3.728;2023-06-26T05:50:20;12.20;;;2.37;;
77828;SDS011;67019;51.034;3.728;2023-06-26T05:52:48;7.58;;;2.45;;
77828;SDS011;67019;51.034;3.728;2023-06-26T05:55:16;10.72;;;2.72;;
77828;SDS011;67019;51.034;3.728;2023-06-26T05:57:47;10.25;;;2.30;;
77828;SDS011;67019;51.034;3.728;2023-06-26T06:00:19;9.40;;;2.60;;
77828;SDS011;67019;51.034;3.728;2023-06-26T06:02:47;9.73;;;2.70;;
77828;SDS011;67019;51.034;3.728;2023-06-26T06:05:16;8.65;;;3.22;;
77828;SDS011;67019;51.034;3.728;2023-06-26T06:07:43;10.53;;;2.30;;
77828;SDS011;67019;51.034;3.728;2023-06-26T06:10:12;4.62;;;2.22;;
77828;SDS011;67019;51.034;3.728;2023-06-26T06:12:40;12.43;;;2.80;;
77828;SDS011;67019;51.034;3.728;2023-06-26T06:15:09;15.18;;;3.08;;
77828;SDS011;67019;51.034;3.728;2023-06-26T06:17:37;16.02;;;3.25;;
77828;SDS011;67019;51.034;3.728;2023-06-26T06:20:04;11.25;;;2.72;;
77828;SDS011;67019;51.034;3.728;2023-06-26T06:22:32;14.73;;;4.05;;
77828;SDS011;67019;51.034;3.728;2023-06-26T06:25:00;9.08;;;2.67;;
77828;SDS011;67019;51.034;3.728;2023-06-26T06:27:27;9.10;;;3.02;;
77828;SDS011;67019;51.034;3.728;2023-06-26T06:29:56;6.47;;;3.22;;
77828;SDS011;67019;51.034;3.728;2023-06-26T06:32:24;10.58;;;2.77;;
77828;SDS011;67019;51.034;3.728;2023-06-26T06:34:51;8.23;;;2.60;;
77828;SDS011;67019;51.034;3.728;2023-06-26T06:37:19;9.33;;;2.55;;
77828;SDS011;67019;51.034;3.728;2023-06-26T06:39:46;7.78;;;2.33;;
77828;SDS011;67019;51.034;3.728;2023-06-26T06:42:14;8.13;;;2.20;;
77828;SDS011;67019;51.034;3.728;2023-06-26T06:44:46;11.00;;;2.92;;
77828;SDS011;67019;51.034;3.728;2023-06-26T06:47:17;9.50;;;3.10;;
77828;SDS011;67019;51.034;3.728;2023-06-26T06:49:44;20.68;;;7.10;;
77828;SDS011;67019;51.034;3.728;2023-06-26T06:52:12;9.73;;;2.55;;
77828;SDS011;67019;51.034;3.728;2023-06-26T06:54:52;9.53;;;2.52;;
77828;SDS011;67019;51.034;3.728;2023-06-26T06:57:21;9.55;;;1.67;;
77828;SDS011;67019;51.034;3.728;2023-06-26T06:59:49;7.72;;;1.80;;
77828;SDS011;67019;51.034;3.728;2023-06-26T07:02:16;8.30;;;2.05;;
77828;SDS011;67019;51.034;3.728;2023-06-26T07:04:44;5.75;;;1.67;;
77828;SDS011;67019;51.034;3.728;2023-06-26T07:07:12;11.88;;;1.87;;
77828;SDS011;67019;51.034;3.728;2023-06-26T07:09:39;7.85;;;1.65;;
77828;SDS011;67019;51.034;3.728;2023-06-26T07:12:07;18.80;;;2.35;;
77828;SDS011;67019;51.034;3.728;2023-06-26T07:14:35;6.03;;;1.77;;
77828;SDS011;67019;51.034;3.728;2023-06-26T07:17:02;7.08;;;2.08;;
77828;SDS011;67019;51.034;3.728;2023-06-26T07:19:30;7.08;;;1.85;;
77828;SDS011;67019;51.034;3.728;2023-06-26T07:21:57;6.95;;;1.27;;
77828;SDS011;67019;51.034;3.728;2023-06-26T07:24:25;8.50;;;1.55;;
77828;SDS011;67019;51.034;3.728;2023-06-26T07:26:52;7.70;;;1.75;;
77828;SDS011;67019;51.034;3.728;2023-06-26T07:29:22;12.18;;;2.45;;
77828;SDS011;67019;51.034;3.728;2023-06-26T07:31:49;6.12;;;2.45;;
77828;SDS011;67019;51.034;3.728;2023-06-26T07:34:17;8.08;;;1.75;;
77828;SDS011;67019;51.034;3.728;2023-06-26T07:36:45;9.65;;;2.55;;
77828;SDS011;67019;51.034;3.728;2023-06-26T07:39:12;7.20;;;1.98;;
77828;SDS011;67019;51.034;3.728;2023-06-26T07:41:40;5.65;;;2.00;;
77828;SDS011;67019;51.034;3.728;2023-06-26T07:44:08;7.97;;;2.10;;
77828;SDS011;67019;51.034;3.728;2023-06-26T07:46:35;6.03;;;1.77;;
77828;SDS011;67019;51.034;3.728;2023-06-26T07:49:03;8.68;;;1.85;;
77828;SDS011;67019;51.034;3.728;2023-06-26T07:51:30;3.25;;;1.60;;
77828;SDS011;67019;51.034;3.728;2023-06-26T07:53:58;21.57;;;2.83;;
77828;SDS011;67019;51.034;3.728;2023-06-26T07:56:26;5.62;;;1.52;;
77828;SDS011;67019;51.034;3.728;2023-06-26T07:58:54;5.92;;;1.60;;
77828;SDS011;67019;51.034;3.728;2023-06-26T08:01:24;4.75;;;1.70;;
77828;SDS011;67019;51.034;3.728;2023-06-26T08:03:51;5.62;;;1.30;;
77828;SDS011;67019;51.034;3.728;2023-06-26T08:06:20;10.08;;;1.52;;
77828;SDS011;67019;51.034;3.728;2023-06-26T08:08:47;5.40;;;1.50;;
77828;SDS011;67019;51.034;3.728;2023-06-26T08:11:15;5.65;;;1.82;;
77828;SDS011;67019;51.034;3.728;2023-06-26T08:13:43;4.78;;;1.15;;
77828;SDS011;67019;51.034;3.728;2023-06-26T08:16:10;11.68;;;1.65;;
77828;SDS011;67019;51.034;3.728;2023-06-26T08:18:38;4.92;;;1.40;;
77828;SDS011;67019;51.034;3.728;2023-06-26T08:21:07;4.70;;;1.27;;
77828;SDS011;67019;51.034;3.728;2023-06-26T08:23:35;6.97;;;1.60;;
77828;SDS011;67019;51.034;3.728;2023-06-26T08:26:03;5.58;;;1.85;;
77828;SDS011;67019;51.034;3.728;2023-06-26T08:28:30;9.45;;;1.65;;
77828;SDS011;67019;51.034;3.728;2023-06-26T08:30:58;5.37;;;2.45;;
77828;SDS011;67019;51.034;3.728;2023-06-26T08:36:11;2.80;;;1.40;;
77828;SDS011;67019;51.034;3.728;2023-06-26T08:38:39;14.28;;;3.67;;
77828;SDS011;67019;51.034;3.728;2023-06-26T08:41:07;10.70;;;4.25;;
77828;SDS011;67019;51.034;3.728;2023-06-26T08:43:35;5.08;;;2.40;;
77828;SDS011;67019;51.034;3.728;2023-06-26T08:46:03;6.95;;;2.05;;
77828;SDS011;67019;51.034;3.728;2023-06-26T08:48:31;5.30;;;1.45;;
77828;SDS011;67019;51.034;3.728;2023-06-26T08:51:01;7.15;;;1.67;;
77828;SDS011;67019;51.034;3.728;2023-06-26T08:53:36;2.67;;;1.35;;
77828;SDS011;67019;51.034;3.728;2023-06-26T08:56:09;9.13;;;1.62;;
77828;SDS011;67019;51.034;3.728;2023-06-26T08:58:39;6.62;;;3.50;;
77828;SDS011;67019;51.034;3.728;2023-06-26T09:01:07;9.80;;;2.37;;
77828;SDS011;67019;51.034;3.728;2023-06-26T09:03:35;3.80;;;2.20;;
77828;SDS011;67019;51.034;3.728;2023-06-26T09:06:03;7.80;;;3.10;;
77828;SDS011;67019;51.034;3.728;2023-06-26T09:08:31;13.40;;;4.80;;
77828;SDS011;67019;51.034;3.728;2023-06-26T09:10:58;6.85;;;1.50;;
77828;SDS011;67019;51.034;3.728;2023-06-26T09:13:28;10.00;;;3.42;;
77828;SDS011;67019;51.034;3.728;2023-06-26T09:15:56;15.15;;;7.08;;
77828;SDS011;67019;51.034;3.728;2023-06-26T09:18:24;45.95;;;5.12;;
77828;SDS011;67019;51.034;3.728;2023-06-26T09:20:53;6.25;;;1.62;;
77828;SDS011;67019;51.034;3.728;2023-06-26T09:26:40;6.50;;;1.55;;
77828;SDS011;67019;51.034;3.728;2023-06-26T09:29:09;4.55;;;1.57;;
77828;SDS011;67019;51.034;3.728;2023-06-26T09:31:38;11.05;;;1.62;;
77828;SDS011;67019;51.034;3.728;2023-06-26T09:34:06;8.18;;;1.95;;
77828;SDS011;67019;51.034;3.728;2023-06-26T09:36:34;9.33;;;3.92;;
77828;SDS011;67019;51.034;3.728;2023-06-26T09:39:03;6.15;;;1.90;;
77828;SDS011;67019;51.034;3.728;2023-06-26T09:41:32;18.92;;;3.75;;
77828;SDS011;67019;51.034;3.728;2023-06-26T09:44:02;12.15;;;2.27;;
77828;SDS011;67019;51.034;3.728;2023-06-26T09:46:30;11.88;;;2.02;;
77828;SDS011;67019;51.034;3.728;2023-06-26T09:48:58;8.50;;;1.80;;
77828;SDS011;67019;51.034;3.728;2023-06-26T09:51:28;5.08;;;1.40;;
77828;SDS011;67019;51.034;3.728;2023-06-26T09:54:21;3.10;;;1.12;;
77828;SDS011;67019;51.034;3.728;2023-06-26T10:00:13;4.95;;;1.67;;
77828;SDS011;67019;51.034;3.728;2023-06-26T10:06:08;9.08;;;1.52;;
77828;SDS011;67019;51.034;3.728;2023-06-26T10:12:02;4.67;;;1.62;;
77828;SDS011;67019;51.034;3.728;2023-06-26T10:14:35;6.42;;;1.87;;
77828;SDS011;67019;51.034;3.728;2023-06-26T10:17:09;14.00;;;1.62;;
77828;SDS011;67019;51.034;3.728;2023-06-26T10:19:39;5.85;;;1.55;;
77828;SDS011;67019;51.034;3.728;2023-06-26T10:22:15;4.35;;;1.30;;
77828;SDS011;67019;51.034;3.728;2023-06-26T10:24:41;3.33;;;1.25;;
77828;SDS011;67019;51.034;3.728;2023-06-26T10:33:10;4.00;;;1.55;;
77828;SDS011;67019;51.034;3.728;2023-06-26T10:40:43;5.35;;;1.50;;
77828;SDS011;67019;51.034;3.728;2023-06-26T10:43:14;6.35;;;1.37;;
77828;SDS011;67019;51.034;3.728;2023-06-26T10:45:43;17.77;;;2.50;;
77828;SDS011;67019;51.034;3.728;2023-06-26T10:48:15;8.97;;;1.53;;
77828;SDS011;67019;51.034;3.728;2023-06-26T10:50:43;3.17;;;1.37;;
77828;SDS011;67019;51.034;3.728;2023-06-26T10:56:00;1.47;;;1.25;;
77828;SDS011;67019;51.034;3.728;2023-06-26T11:01:18;12.10;;;2.05;;
77828;SDS011;67019;51.034;3.728;2023-06-26T11:06:40;8.45;;;1.52;;
77828;SDS011;67019;51.034;3.728;2023-06-26T11:15:07;4.37;;;1.70;;
77828;SDS011;67019;51.034;3.728;2023-06-26T11:17:35;20.82;;;2.08;;
77828;SDS011;67019;51.034;3.728;2023-06-26T11:20:08;7.28;;;1.52;;
77828;SDS011;67019;51.034;3.728;2023-06-26T11:22:37;5.92;;;1.30;;
77828;SDS011;67019;51.034;3.728;2023-06-26T11:25:06;4.85;;;1.62;;
77828;SDS011;67019;51.034;3.728;2023-06-26T11:27:37;4.37;;;1.70;;
77828;SDS011;67019;51.034;3.728;2023-06-26T11:30:22;2.60;;;1.20;;
77828;SDS011;67019;51.034;3.728;2023-06-26T11:32:38;9.33;;;2.55;;
77828;SDS011;67019;51.034;3.728;2023-06-26T11:35:06;6.15;;;1.70;;
77828;SDS011;67019;51.034;3.728;2023-06-26T11:40:59;4.15;;;1.27;;
77828;SDS011;67019;51.034;3.728;2023-06-26T11:47:00;3.42;;;1.27;;
77828;SDS011;67019;51.034;3.728;2023-06-26T11:52:56;2.98;;;1.32;;
77828;SDS011;67019;51.034;3.728;2023-06-26T11:58:56;4.12;;;1.85;;
77828;SDS011;67019;51.034;3.728;2023-06-26T12:24:50;22.90;;;4.50;;
77828;SDS011;67019;51.034;3.728;2023-06-26T12:30:40;6.65;;;1.45;;
77828;SDS011;67019;51.034;3.728;2023-06-26T12:39:20;10.23;;;1.75;;
77828;SDS011;67019;51.034;3.728;2023-06-26T12:41:48;6.37;;;1.67;;
77828;SDS011;67019;51.034;3.728;2023-06-26T12:44:21;7.12;;;1.80;;
77828;SDS011;67019;51.034;3.728;2023-06-26T12:46:53;3.42;;;1.47;;
77828;SDS011;67019;51.034;3.728;2023-06-26T12:49:28;1.75;;;1.05;;
77828;SDS011;67019;51.034;3.728;2023-06-26T12:51:54;4.25;;;1.25;;
77828;SDS011;67019;51.034;3.728;2023-06-26T13:03:30;6.45;;;1.50;;
77828;SDS011;67019;51.034;3.728;2023-06-26T13:05:58;4.62;;;1.37;;
77828;SDS011;67019;51.034;3.728;2023-06-26T13:08:25;3.77;;;1.57;;
77828;SDS011;67019;51.034;3.728;2023-06-26T13:31:04;4.37;;;1.70;;
77828;SDS011;67019;51.034;3.728;2023-06-26T13:59:49;8.23;;;1.37;;
77828;SDS011;67019;51.034;3.728;2023-06-26T14:02:17;7.22;;;1.52;;
77828;SDS011;67019;51.034;3.728;2023-06-26T14:04:45;3.80;;;1.50;;
77828;SDS011;67019;51.034;3.728;2023-06-26T14:17:33;2.00;;;1.10;;
77828;SDS011;67019;51.034;3.728;2023-06-26T14:20:01;5.75;;;0.90;;
77828;SDS011;67019;51.034;3.728;2023-06-26T14:22:30;3.70;;;1.22;;
77828;SDS011;67019;51.034;3.728;2023-06-26T14:25:11;4.03;;;1.27;;
77828;SDS011;67019;51.034;3.728;2023-06-26T14:27:38;4.33;;;1.15;;
77828;SDS011;67019;51.034;3.728;2023-06-26T14:30:06;1.57;;;0.93;;
77828;SDS011;67019;51.034;3.728;2023-06-26T14:32:35;3.08;;;1.00;;
77828;SDS011;67019;51.034;3.728;2023-06-26T14:35:02;7.15;;;1.07;;
77828;SDS011;67019;51.034;3.728;2023-06-26T14:37:30;3.80;;;1.70;;
77828;SDS011;67019;51.034;3.728;2023-06-26T14:39:58;4.30;;;0.95;;
77828;SDS011;67019;51.034;3.728;2023-06-26T14:42:27;5.67;;;1.12;;
77828;SDS011;67019;51.034;3.728;2023-06-26T16:57:15;5.08;;;1.70;;
77828;SDS011;67019;51.034;3.728;2023-06-26T16:59:43;3.55;;;1.62;;
77828;SDS011;67019;51.034;3.728;2023-06-26T17:02:10;5.83;;;1.50;;
77828;SDS011;67019;51.034;3.728;2023-06-26T17:14:23;5.58;;;1.37;;
77828;SDS011;67019;51.034;3.728;2023-06-26T17:16:50;6.42;;;1.35;;
77828;SDS011;67019;51.034;3.728;2023-06-26T17:19:25;7.33;;;2.08;;
77828;SDS011;67019;51.034;3.728;2023-06-26T17:21:52;8.50;;;1.90;;
77828;SDS011;67019;51.034;3.728;2023-06-26T17:24:20;7.33;;;1.47;;
77828;SDS011;67019;51.034;3.728;2023-06-26T18:10:42;4.87;;;1.50;;
77828;SDS011;67019;51.034;3.728;2023-06-26T18:13:11;5.20;;;1.45;;
77828;SDS011;67019;51.034;3.728;2023-06-26T18:15:39;2.50;;;1.70;;
77828;SDS011;67019;51.034;3.728;2023-06-26T18:18:08;4.33;;;1.90;;
77828;SDS011;67019;51.034;3.728;2023-06-26T18:20:36;4.65;;;1.50;;
77828;SDS011;67019;51.034;3.728;2023-06-26T18:23:03;4.87;;;1.47;;
77828;SDS011;67019;51.034;3.728;2023-06-26T18:25:31;7.58;;;1.85;;
77828;SDS011;67019;51.034;3.728;2023-06-26T18:27:59;7.58;;;1.40;;
77828;SDS011;67019;51.034;3.728;2023-06-26T18:30:26;7.35;;;1.65;;
77828;SDS011;67019;51.034;3.728;2023-06-26T18:32:54;9.30;;;2.75;;
77828;SDS011;67019;51.034;3.728;2023-06-26T18:35:23;6.85;;;2.05;;
77828;SDS011;67019;51.034;3.728;2023-06-26T18:37:54;7.17;;;1.65;;
77828;SDS011;67019;51.034;3.728;2023-06-26T18:40:21;8.68;;;2.83;;
77828;SDS011;67019;51.034;3.728;2023-06-26T18:42:51;6.45;;;2.00;;
77828;SDS011;67019;51.034;3.728;2023-06-26T18:45:18;12.33;;;2.22;;
77828;SDS011;67019;51.034;3.728;2023-06-26T18:47:46;10.82;;;1.70;;
77828;SDS011;67019;51.034;3.728;2023-06-26T18:50:15;6.60;;;2.02;;
77828;SDS011;67019;51.034;3.728;2023-06-26T18:52:45;8.45;;;2.83;;
77828;SDS011;67019;51.034;3.728;2023-06-26T18:55:12;9.70;;;2.10;;
77828;SDS011;67019;51.034;3.728;2023-06-26T18:57:42;9.23;;;2.17;;
77828;SDS011;67019;51.034;3.728;2023-06-26T19:00:11;10.43;;;2.58;;
77828;SDS011;67019;51.034;3.728;2023-06-26T19:02:40;6.90;;;2.12;;
77828;SDS011;67019;51.034;3.728;2023-06-26T19:05:08;12.85;;;2.92;;
77828;SDS011;67019;51.034;3.728;2023-06-26T19:07:36;9.33;;;2.40;;
77828;SDS011;67019;51.034;3.728;2023-06-26T19:10:05;8.63;;;2.30;;
77828;SDS011;67019;51.034;3.728;2023-06-26T19:12:33;4.17;;;2.60;;
77828;SDS011;67019;51.034;3.728;2023-06-26T19:15:01;9.08;;;2.55;;
77828;SDS011;67019;51.034;3.728;2023-06-26T19:20:14;12.33;;;2.02;;
77828;SDS011;67019;51.034;3.728;2023-06-26T19:22:45;9.68;;;4.33;;
77828;SDS011;67019;51.034;3.728;2023-06-26T19:25:12;6.78;;;1.98;;
77828;SDS011;67019;51.034;3.728;2023-06-26T19:27:46;9.10;;;2.58;;
77828;SDS011;67019;51.034;3.728;2023-06-26T19:30:14;9.28;;;2.15;;
77828;SDS011;67019;51.034;3.728;2023-06-26T19:32:44;6.12;;;2.40;;
77828;SDS011;67019;51.034;3.728;2023-06-26T19:38:36;4.03;;;1.50;;
77828;SDS011;67019;51.034;3.728;2023-06-26T19:41:04;5.70;;;1.98;;
77828;SDS011;67019;51.034;3.728;2023-06-26T19:43:32;16.67;;;6.75;;
77828;SDS011;67019;51.034;3.728;2023-06-26T19:45:59;15.03;;;7.40;;
77828;SDS011;67019;51.034;3.728;2023-06-26T19:48:28;11.75;;;2.65;;
77828;SDS011;67019;51.034;3.728;2023-06-26T19:51:00;6.58;;;4.65;;
77828;SDS011;67019;51.034;3.728;2023-06-26T19:56:53;7.67;;;2.10;;
77828;SDS011;67019;51.034;3.728;2023-06-26T19:59:22;10.43;;;2.33;;
77828;SDS011;67019;51.034;3.728;2023-06-26T20:01:50;8.80;;;2.17;;
77828;SDS011;67019;51.034;3.728;2023-06-26T20:04:21;12.43;;;2.92;;
77828;SDS011;67019;51.034;3.728;2023-06-26T20:06:49;10.68;;;3.30;;
77828;SDS011;67019;51.034;3.728;2023-06-26T20:09:17;17.52;;;3.52;;
77828;SDS011;67019;51.034;3.728;2023-06-26T20:12:03;7.95;;;2.05;;
77828;SDS011;67019;51.034;3.728;2023-06-26T20:18:03;9.55;;;2.30;;
77828;SDS011;67019;51.034;3.728;2023-06-26T20:36:32;10.70;;;2.20;;
77828;SDS011;67019;51.034;3.728;2023-06-26T20:44:55;6.67;;;2.37;;
77828;SDS011;67019;51.034;3.728;2023-06-26T20:47:23;10.35;;;2.30;;
77828;SDS011;67019;51.034;3.728;2023-06-26T20:49:53;5.83;;;2.23;;
77828;SDS011;67019;51.034;3.728;2023-06-26T20:52:24;10.55;;;2.50;;
77828;SDS011;67019;51.034;3.728;2023-06-26T21:47:35;14.70;;;2.17;;
77828;SDS011;67019;51.034;3.728;2023-06-26T22:59:49;12.78;;;2.15;;
77828;SDS011;67019;51.034;3.728;2023-06-26T23:02:17;9.93;;;2.55;;
77828;SDS011;67019;51.034;3.728;2023-06-26T23:08:24;13.50;;;3.55;;
77828;SDS011;67019;51.034;3.728;2023-06-26T23:30:51;16.02;;;2.67;;
77828;SDS011;67019;51.034;3.728;2023-06-26T23:56:39;8.88;;;2.27;;
